Time;durP1;ratioP1;P1;durP2;ratioP2;P2;SDS_P1;SDS_P2;PMS_P1;PMS_P2;Temp;Humidity;BMP_temperature;BMP_pressure;BME280_temperature;BME280_humidity;BME280_pressure;Samples;Min_cycle;Max_cycle;Signal;HPM_P1;HPM_P2
2024/01/17 00:00:30;;;;;;;12.90;7.33;;;;;;;;;;765276;181;917387;-68
2024/01/17 00:02:56;;;;;;;16.40;8.13;;;;;;;;;;774444;180;917957;-68
2024/01/17 00:05:22;;;;;;;15.10;8.77;;;;;;;;;;763783;180;915098;-69
2024/01/17 00:07:47;;;;;;;13.73;8.43;;;;;;;;;;773088;180;913650;-69
2024/01/17 00:10:13;;;;;;;13.07;7.50;;;;;;;;;;777990;179;918258;-68
2024/01/17 00:12:39;;;;;;;16.03;7.53;;;;;;;;;;773204;180;919312;-68
2024/01/17 00:15:05;;;;;;;18.37;7.33;;;;;;;;;;770909;180;1019433;-68
2024/01/17 00:17:31;;;;;;;11.20;7.55;;;;;;;;;;775946;180;919359;-68
2024/01/17 00:19:57;;;;;;;14.53;8.03;;;;;;;;;;765484;181;917598;-69
2024/01/17 00:22:23;;;;;;;13.10;7.10;;;;;;;;;;775913;180;915978;-68
2024/01/17 00:24:51;;;;;;;12.90;6.87;;;;;;;;;;780122;179;915635;-69
2024/01/17 00:27:14;;;;;;;12.23;7.50;;;;;;;;;;776666;179;919738;-68
2024/01/17 00:29:40;;;;;;;17.47;7.53;;;;;;;;;;775896;179;918636;-67
2024/01/17 00:32:06;;;;;;;13.40;6.90;;;;;;;;;;776013;179;917254;-69
2024/01/17 00:34:32;;;;;;;17.67;8.87;;;;;;;;;;770152;180;919156;-68
2024/01/17 00:36:58;;;;;;;13.20;7.40;;;;;;;;;;766528;179;919759;-68
2024/01/17 00:39:24;;;;;;;14.68;7.72;;;;;;;;;;774155;180;918848;-67
2024/01/17 00:41:50;;;;;;;13.57;8.00;;;;;;;;;;773389;179;918570;-67
2024/01/17 00:44:18;;;;;;;10.50;7.13;;;;;;;;;;774020;179;917996;-67
2024/01/17 00:46:42;;;;;;;13.07;6.70;;;;;;;;;;775193;179;920248;-67
2024/01/17 00:49:07;;;;;;;10.67;6.80;;;;;;;;;;781205;180;917427;-67
2024/01/17 00:51:33;;;;;;;14.87;7.70;;;;;;;;;;774989;179;918253;-67
2024/01/17 00:53:59;;;;;;;11.53;6.90;;;;;;;;;;774238;179;919052;-67
2024/01/17 00:56:26;;;;;;;12.83;6.70;;;;;;;;;;779085;180;919001;-67
2024/01/17 00:58:51;;;;;;;10.03;6.60;;;;;;;;;;771357;179;918780;-67
2024/01/17 01:01:17;;;;;;;11.30;7.13;;;;;;;;;;774447;179;918748;-68
2024/01/17 01:03:43;;;;;;;15.07;7.90;;;;;;;;;;780960;179;919461;-68
2024/01/17 01:06:09;;;;;;;13.03;7.00;;;;;;;;;;767913;179;919190;-68
2024/01/17 01:08:34;;;;;;;18.67;7.40;;;;;;;;;;771453;180;919194;-67
2024/01/17 01:11:00;;;;;;;16.00;7.77;;;;;;;;;;765141;179;919521;-67
2024/01/17 01:13:26;;;;;;;11.38;6.85;;;;;;;;;;782203;179;918739;-68
2024/01/17 01:15:52;;;;;;;13.90;6.67;;;;;;;;;;770865;180;1043518;-67
2024/01/17 01:18:18;;;;;;;13.77;8.70;;;;;;;;;;765161;180;918716;-68
2024/01/17 01:20:44;;;;;;;13.30;6.10;;;;;;;;;;782401;179;919599;-68
2024/01/17 01:23:09;;;;;;;13.07;7.23;;;;;;;;;;764414;179;917715;-68
2024/01/17 01:25:35;;;;;;;14.70;7.72;;;;;;;;;;760138;180;921295;-68
2024/01/17 01:28:01;;;;;;;10.60;6.87;;;;;;;;;;780652;179;919559;-68
2024/01/17 01:30:28;;;;;;;13.30;7.90;;;;;;;;;;774036;180;918986;-68
2024/01/17 01:32:53;;;;;;;12.80;6.00;;;;;;;;;;759649;183;1020933;-68
2024/01/17 01:35:19;;;;;;;11.70;7.60;;;;;;;;;;774489;179;918385;-67
2024/01/17 01:37:44;;;;;;;12.67;8.10;;;;;;;;;;777922;179;919018;-67
2024/01/17 01:40:11;;;;;;;14.13;7.13;;;;;;;;;;781754;179;918769;-68
2024/01/17 01:42:37;;;;;;;14.83;8.30;;;;;;;;;;771353;180;915931;-67
2024/01/17 01:45:03;;;;;;;11.60;8.00;;;;;;;;;;779742;180;918033;-67
2024/01/17 01:47:29;;;;;;;12.90;6.93;;;;;;;;;;776493;180;918922;-68
2024/01/17 01:49:54;;;;;;;9.73;6.43;;;;;;;;;;771129;180;919371;-69
2024/01/17 01:52:20;;;;;;;20.13;9.93;;;;;;;;;;778965;180;919760;-68
2024/01/17 01:54:46;;;;;;;13.00;7.47;;;;;;;;;;773738;180;918219;-67
2024/01/17 01:57:12;;;;;;;13.25;7.60;;;;;;;;;;774699;179;919041;-67
2024/01/17 01:59:38;;;;;;;13.77;7.20;;;;;;;;;;780143;179;919158;-67
2024/01/17 02:02:04;;;;;;;15.67;8.50;;;;;;;;;;767021;179;919081;-67
2024/01/17 02:04:30;;;;;;;10.33;7.13;;;;;;;;;;771953;179;1839430;-68
2024/01/17 02:06:55;;;;;;;13.03;8.40;;;;;;;;;;774496;179;920466;-66
2024/01/17 02:09:21;;;;;;;18.02;7.68;;;;;;;;;;773494;180;920092;-66
2024/01/17 02:11:47;;;;;;;14.67;7.33;;;;;;;;;;773406;180;917511;-68
2024/01/17 02:14:13;;;;;;;19.08;9.15;;;;;;;;;;774689;180;918583;-67
2024/01/17 02:16:39;;;;;;;15.63;7.60;;;;;;;;;;780164;180;918510;-69
2024/01/17 02:19:04;;;;;;;17.63;9.13;;;;;;;;;;775431;180;917050;-68
2024/01/17 02:21:30;;;;;;;13.00;6.87;;;;;;;;;;771478;180;915712;-67
2024/01/17 02:23:56;;;;;;;13.88;7.15;;;;;;;;;;779941;179;943875;-67
2024/01/17 02:26:22;;;;;;;16.97;7.37;;;;;;;;;;772458;180;918142;-68
2024/01/17 02:28:48;;;;;;;15.93;7.90;;;;;;;;;;775594;180;918648;-67
2024/01/17 02:31:14;;;;;;;12.32;7.75;;;;;;;;;;778749;180;921995;-67
2024/01/17 02:33:40;;;;;;;16.80;8.63;;;;;;;;;;761472;182;920034;-67
2024/01/17 02:36:06;;;;;;;15.37;7.73;;;;;;;;;;750468;185;918692;-68
2024/01/17 02:38:32;;;;;;;16.47;8.70;;;;;;;;;;738351;185;953142;-66
2024/01/17 02:40:58;;;;;;;17.60;9.13;;;;;;;;;;761349;184;918475;-68
2024/01/17 02:43:26;;;;;;;19.60;9.67;;;;;;;;;;753346;184;919731;-67
2024/01/17 02:45:49;;;;;;;16.13;8.43;;;;;;;;;;755401;184;917149;-67
2024/01/17 02:48:15;;;;;;;26.73;10.67;;;;;;;;;;762057;182;916839;-66
2024/01/17 02:50:41;;;;;;;18.83;9.97;;;;;;;;;;737571;188;916372;-67
2024/01/17 02:53:07;;;;;;;19.13;10.70;;;;;;;;;;751769;183;921731;-67
2024/01/17 02:55:33;;;;;;;14.73;9.27;;;;;;;;;;780704;179;916157;-67
2024/01/17 02:58:00;;;;;;;19.30;10.27;;;;;;;;;;770809;179;915631;-67
2024/01/17 03:00:25;;;;;;;17.70;11.10;;;;;;;;;;765463;180;916532;-68
2024/01/17 03:02:51;;;;;;;16.23;9.10;;;;;;;;;;769923;179;915753;-67
2024/01/17 03:05:17;;;;;;;14.70;9.83;;;;;;;;;;776736;180;916115;-68
2024/01/17 03:07:43;;;;;;;27.40;11.03;;;;;;;;;;768053;180;915883;-67
2024/01/17 03:10:11;;;;;;;23.77;9.60;;;;;;;;;;773201;179;1020658;-66
2024/01/17 03:12:34;;;;;;;19.97;11.70;;;;;;;;;;781510;180;1013566;-67
2024/01/17 03:15:01;;;;;;;20.17;9.93;;;;;;;;;;773109;179;915873;-67
2024/01/17 03:17:26;;;;;;;18.57;9.67;;;;;;;;;;774141;179;919117;-67
2024/01/17 03:19:54;;;;;;;19.60;8.90;;;;;;;;;;780897;180;916622;-68
2024/01/17 03:22:18;;;;;;;18.57;10.47;;;;;;;;;;771913;179;918344;-68
2024/01/17 03:24:45;;;;;;;15.18;10.35;;;;;;;;;;769064;180;920335;-67
2024/01/17 03:27:10;;;;;;;22.63;11.60;;;;;;;;;;766005;180;922182;-67
2024/01/17 03:29:36;;;;;;;22.87;11.30;;;;;;;;;;770245;180;923531;-67
2024/01/17 03:32:02;;;;;;;23.00;11.40;;;;;;;;;;766327;180;919147;-68
2024/01/17 03:34:28;;;;;;;31.43;11.60;;;;;;;;;;768497;180;918693;-67
2024/01/17 03:36:54;;;;;;;21.70;9.07;;;;;;;;;;772948;180;918828;-67
2024/01/17 03:39:21;;;;;;;22.00;10.00;;;;;;;;;;776220;180;918935;-67
2024/01/17 03:41:46;;;;;;;16.80;9.93;;;;;;;;;;773929;180;919489;-67
2024/01/17 03:44:11;;;;;;;18.13;10.67;;;;;;;;;;779630;180;919435;-66
2024/01/17 03:46:37;;;;;;;21.00;8.70;;;;;;;;;;774746;179;917889;-68
2024/01/17 03:49:03;;;;;;;21.90;10.43;;;;;;;;;;774824;180;919757;-68
2024/01/17 03:51:29;;;;;;;21.83;9.70;;;;;;;;;;779959;180;918881;-67
2024/01/17 03:53:55;;;;;;;19.40;10.40;;;;;;;;;;768502;180;919890;-67
2024/01/17 03:56:21;;;;;;;17.53;9.40;;;;;;;;;;763658;180;919407;-68
2024/01/17 03:58:46;;;;;;;14.50;9.20;;;;;;;;;;772589;176;918525;-67
2024/01/17 04:01:12;;;;;;;16.37;9.30;;;;;;;;;;777662;180;918500;-68
2024/01/17 04:03:39;;;;;;;17.83;9.75;;;;;;;;;;764960;179;919392;-67
2024/01/17 04:06:04;;;;;;;13.40;9.70;;;;;;;;;;775849;179;918025;-67
2024/01/17 04:08:30;;;;;;;15.60;9.47;;;;;;;;;;778345;179;919464;-66
2024/01/17 04:10:56;;;;;;;20.53;9.80;;;;;;;;;;769195;180;919442;-67
2024/01/17 04:13:22;;;;;;;26.93;10.83;;;;;;;;;;775573;179;916869;-67
2024/01/17 04:15:48;;;;;;;13.30;8.70;;;;;;;;;;781576;179;916207;-67
2024/01/17 04:18:14;;;;;;;13.83;9.20;;;;;;;;;;771579;179;919680;-67
2024/01/17 04:20:39;;;;;;;17.15;8.65;;;;;;;;;;766484;180;919208;-66
2024/01/17 04:23:05;;;;;;;14.90;8.77;;;;;;;;;;763920;181;920260;-67
2024/01/17 04:25:31;;;;;;;20.00;9.23;;;;;;;;;;770095;180;918344;-67
2024/01/17 04:27:57;;;;;;;15.43;9.03;;;;;;;;;;771306;180;919523;-66
2024/01/17 04:30:23;;;;;;;17.60;9.17;;;;;;;;;;774390;180;918603;-66
2024/01/17 04:32:49;;;;;;;23.13;9.73;;;;;;;;;;777587;180;919176;-67
2024/01/17 04:35:17;;;;;;;19.77;9.40;;;;;;;;;;774681;179;927925;-67
2024/01/17 04:37:43;;;;;;;26.70;10.17;;;;;;;;;;775329;180;924675;-67
2024/01/17 04:40:09;;;;;;;20.90;9.63;;;;;;;;;;773419;180;917422;-67
2024/01/17 04:42:35;;;;;;;14.47;7.73;;;;;;;;;;776637;179;918740;-67
2024/01/17 04:45:01;;;;;;;22.05;9.68;;;;;;;;;;769594;180;919952;-66
2024/01/17 04:47:27;;;;;;;21.60;10.13;;;;;;;;;;775845;180;962100;-65
2024/01/17 04:49:53;;;;;;;15.40;9.03;;;;;;;;;;773853;180;920314;-66
2024/01/17 04:52:19;;;;;;;20.33;9.60;;;;;;;;;;774855;180;922033;-68
2024/01/17 04:54:45;;;;;;;16.90;8.47;;;;;;;;;;778104;179;647385;-66
2024/01/17 04:57:11;;;;;;;14.43;7.83;;;;;;;;;;784102;180;636665;-67
2024/01/17 04:59:36;;;;;;;15.30;8.37;;;;;;;;;;771089;180;920101;-65
2024/01/17 05:02:02;;;;;;;23.23;9.60;;;;;;;;;;771858;180;1014607;-66
2024/01/17 05:04:28;;;;;;;15.67;9.17;;;;;;;;;;781764;180;912361;-66
2024/01/17 05:06:54;;;;;;;17.23;9.40;;;;;;;;;;775695;179;915472;-66
2024/01/17 05:09:21;;;;;;;17.13;8.23;;;;;;;;;;779384;177;633807;-67
2024/01/17 05:11:46;;;;;;;16.93;9.27;;;;;;;;;;783988;178;624238;-66
2024/01/17 05:14:11;;;;;;;17.60;8.63;;;;;;;;;;776377;179;920194;-67
2024/01/17 05:16:37;;;;;;;15.33;7.67;;;;;;;;;;776735;179;642225;-66
2024/01/17 05:19:03;;;;;;;14.97;8.13;;;;;;;;;;778565;179;920641;-66
2024/01/17 05:21:29;;;;;;;15.30;9.93;;;;;;;;;;780383;179;642582;-66
2024/01/17 05:23:55;;;;;;;21.60;9.57;;;;;;;;;;768859;180;919236;-66
2024/01/17 05:26:21;;;;;;;14.00;8.53;;;;;;;;;;769999;179;918743;-66
2024/01/17 05:28:46;;;;;;;17.10;8.90;;;;;;;;;;780937;180;919198;-66
2024/01/17 05:31:12;;;;;;;15.27;8.10;;;;;;;;;;776361;180;1021737;-66
2024/01/17 05:33:38;;;;;;;16.80;8.70;;;;;;;;;;778436;179;666692;-66
2024/01/17 05:36:04;;;;;;;15.50;8.27;;;;;;;;;;778055;180;917950;-67
2024/01/17 05:38:30;;;;;;;15.20;7.80;;;;;;;;;;775271;179;631237;-67
2024/01/17 05:40:56;;;;;;;12.57;7.77;;;;;;;;;;777579;179;629745;-65
2024/01/17 05:43:22;;;;;;;23.33;8.53;;;;;;;;;;780481;179;629996;-65
2024/01/17 05:45:48;;;;;;;14.30;9.63;;;;;;;;;;774976;179;630269;-66
2024/01/17 05:48:13;;;;;;;17.97;9.47;;;;;;;;;;777193;180;937766;-66
2024/01/17 05:50:39;;;;;;;10.53;7.23;;;;;;;;;;772981;179;918004;-66
2024/01/17 05:53:05;;;;;;;19.20;9.63;;;;;;;;;;781944;180;621469;-66
2024/01/17 05:55:32;;;;;;;13.10;7.77;;;;;;;;;;780873;179;618221;-66
2024/01/17 05:57:57;;;;;;;13.73;7.57;;;;;;;;;;777821;178;632449;-66
2024/01/17 06:00:23;;;;;;;15.80;8.67;;;;;;;;;;770372;181;629205;-67
2024/01/17 06:02:48;;;;;;;12.50;7.90;;;;;;;;;;765623;180;617125;-67
2024/01/17 06:05:16;;;;;;;14.67;8.47;;;;;;;;;;776289;180;914071;-67
2024/01/17 06:07:40;;;;;;;11.20;6.80;;;;;;;;;;775379;180;637808;-67
2024/01/17 06:10:06;;;;;;;14.97;9.10;;;;;;;;;;760156;180;915676;-67
2024/01/17 06:12:32;;;;;;;12.50;7.43;;;;;;;;;;777478;179;920069;-67
2024/01/17 06:14:58;;;;;;;10.53;6.07;;;;;;;;;;775564;180;918878;-66
2024/01/17 06:17:24;;;;;;;22.87;10.60;;;;;;;;;;777245;180;919009;-67
2024/01/17 06:19:50;;;;;;;13.90;7.20;;;;;;;;;;773018;179;920017;-67
2024/01/17 06:22:18;;;;;;;16.70;8.87;;;;;;;;;;775304;179;915439;-67
2024/01/17 06:24:42;;;;;;;15.00;8.53;;;;;;;;;;781172;179;933506;-66
2024/01/17 06:27:08;;;;;;;12.80;7.45;;;;;;;;;;770161;179;919006;-65
2024/01/17 06:29:34;;;;;;;13.43;7.60;;;;;;;;;;771992;179;917958;-67
2024/01/17 06:32:01;;;;;;;15.30;8.05;;;;;;;;;;780467;179;918753;-67
2024/01/17 06:34:26;;;;;;;20.83;9.60;;;;;;;;;;776982;179;925871;-66
2024/01/17 06:36:52;;;;;;;11.98;8.05;;;;;;;;;;775603;179;922685;-66
2024/01/17 06:39:17;;;;;;;13.27;8.90;;;;;;;;;;775200;179;918495;-66
2024/01/17 06:41:43;;;;;;;11.90;8.30;;;;;;;;;;774120;179;919569;-67
2024/01/17 06:44:09;;;;;;;13.63;8.00;;;;;;;;;;768845;179;1020245;-66
2024/01/17 06:46:35;;;;;;;15.95;8.43;;;;;;;;;;782770;176;905714;-65
2024/01/17 06:49:01;;;;;;;15.30;8.43;;;;;;;;;;778485;179;876582;-65
2024/01/17 06:51:27;;;;;;;14.13;8.90;;;;;;;;;;776367;179;920358;-66
2024/01/17 06:53:52;;;;;;;13.73;7.93;;;;;;;;;;773890;180;920094;-65
2024/01/17 06:56:18;;;;;;;15.73;8.73;;;;;;;;;;773926;179;1225704;-67
2024/01/17 06:58:44;;;;;;;14.80;9.10;;;;;;;;;;772076;180;1126614;-66
2024/01/17 07:01:10;;;;;;;16.03;9.53;;;;;;;;;;771642;179;919300;-68
2024/01/17 07:03:36;;;;;;;15.20;9.80;;;;;;;;;;774959;180;916963;-67
2024/01/17 07:06:02;;;;;;;16.23;9.00;;;;;;;;;;768276;180;920387;-67
2024/01/17 07:08:28;;;;;;;15.32;8.07;;;;;;;;;;773959;177;1017760;-66
2024/01/17 07:10:53;;;;;;;16.37;8.70;;;;;;;;;;776983;179;916006;-67
2024/01/17 07:13:19;;;;;;;14.43;9.00;;;;;;;;;;780672;179;912720;-67
2024/01/17 07:15:45;;;;;;;15.57;9.23;;;;;;;;;;775545;179;916705;-67
2024/01/17 07:18:11;;;;;;;19.40;9.17;;;;;;;;;;773960;179;919558;-66
2024/01/17 07:20:37;;;;;;;18.10;9.83;;;;;;;;;;780777;180;918064;-67
2024/01/17 07:23:03;;;;;;;17.80;7.77;;;;;;;;;;772961;179;914405;-66
2024/01/17 07:25:29;;;;;;;19.20;12.50;;;;;;;;;;773772;179;915552;-67
2024/01/17 07:27:54;;;;;;;38.00;15.87;;;;;;;;;;778756;180;917466;-67
2024/01/17 07:30:20;;;;;;;25.20;14.37;;;;;;;;;;772409;180;915590;-66
2024/01/17 07:32:46;;;;;;;48.87;19.83;;;;;;;;;;776408;180;918008;-68
2024/01/17 07:35:13;;;;;;;133.93;50.70;;;;;;;;;;778878;178;1016982;-67
2024/01/17 07:37:38;;;;;;;133.90;56.20;;;;;;;;;;772936;179;918441;-68
2024/01/17 07:40:04;;;;;;;140.63;57.67;;;;;;;;;;769404;180;916753;-67
2024/01/17 07:42:30;;;;;;;239.23;99.63;;;;;;;;;;772092;180;915410;-66
2024/01/17 07:44:56;;;;;;;210.35;85.38;;;;;;;;;;781657;180;909143;-68
2024/01/17 07:47:22;;;;;;;182.13;75.83;;;;;;;;;;776612;179;903274;-67
2024/01/17 07:49:48;;;;;;;166.27;68.10;;;;;;;;;;773243;180;946674;-67
2024/01/17 07:52:14;;;;;;;121.03;56.80;;;;;;;;;;774021;180;927081;-68
2024/01/17 07:54:39;;;;;;;149.30;65.70;;;;;;;;;;775202;179;918719;-68
2024/01/17 07:57:05;;;;;;;156.33;71.53;;;;;;;;;;770969;180;918780;-67
2024/01/17 07:59:31;;;;;;;139.00;59.63;;;;;;;;;;776825;180;919781;-69
2024/01/17 08:01:57;;;;;;;131.40;57.83;;;;;;;;;;773033;180;919663;-68
2024/01/17 08:04:23;;;;;;;120.37;56.97;;;;;;;;;;774639;179;919717;-67
2024/01/17 08:06:48;;;;;;;109.83;59.27;;;;;;;;;;774931;179;918943;-68
2024/01/17 08:11:47;;;;;;;107.78;56.40;;;;;;;;;;768661;179;919044;-68
2024/01/17 08:14:12;;;;;;;116.70;58.30;;;;;;;;;;773686;180;919392;-68
2024/01/17 08:16:38;;;;;;;104.47;53.50;;;;;;;;;;779221;180;917834;-68
2024/01/17 08:19:05;;;;;;;97.27;50.77;;;;;;;;;;773211;179;918659;-68
2024/01/17 08:21:31;;;;;;;99.03;48.47;;;;;;;;;;773608;180;919758;-68
2024/01/17 08:23:56;;;;;;;110.37;48.20;;;;;;;;;;771871;179;921048;-67
2024/01/17 08:26:22;;;;;;;112.90;48.58;;;;;;;;;;772156;180;919398;-68
2024/01/17 08:28:48;;;;;;;76.93;36.20;;;;;;;;;;772727;180;1018280;-69
2024/01/17 08:31:13;;;;;;;124.53;53.20;;;;;;;;;;772277;180;936348;-68
2024/01/17 08:33:39;;;;;;;113.67;53.43;;;;;;;;;;777940;180;917750;-68
2024/01/17 08:36:07;;;;;;;74.80;38.00;;;;;;;;;;775827;180;919603;-69
2024/01/17 08:38:31;;;;;;;83.50;40.93;;;;;;;;;;769711;180;918726;-68
2024/01/17 08:40:57;;;;;;;89.60;43.43;;;;;;;;;;776842;179;915302;-68
2024/01/17 08:43:23;;;;;;;108.07;49.10;;;;;;;;;;774020;179;916602;-70
2024/01/17 08:45:48;;;;;;;108.97;49.00;;;;;;;;;;771706;180;919219;-68
2024/01/17 08:48:14;;;;;;;99.93;49.00;;;;;;;;;;783337;179;918933;-69
2024/01/17 08:50:40;;;;;;;93.97;46.77;;;;;;;;;;773559;179;919152;-70
2024/01/17 08:53:06;;;;;;;85.25;38.63;;;;;;;;;;778104;179;918687;-70
2024/01/17 08:55:32;;;;;;;78.60;41.97;;;;;;;;;;773008;180;919175;-69
2024/01/17 08:57:58;;;;;;;68.17;36.50;;;;;;;;;;780274;180;929169;-69
2024/01/17 09:00:24;;;;;;;69.23;36.93;;;;;;;;;;775066;180;919194;-69
2024/01/17 09:02:50;;;;;;;85.20;40.75;;;;;;;;;;774304;180;918184;-69
2024/01/17 09:05:18;;;;;;;76.30;38.20;;;;;;;;;;771731;180;919088;-68
2024/01/17 09:07:43;;;;;;;62.10;32.33;;;;;;;;;;762366;179;1021403;-69
2024/01/17 09:10:07;;;;;;;53.37;31.40;;;;;;;;;;768384;179;919851;-69
2024/01/17 09:12:33;;;;;;;50.03;30.53;;;;;;;;;;778462;179;919702;-70
2024/01/17 09:14:59;;;;;;;86.20;43.83;;;;;;;;;;768306;179;920117;-70
2024/01/17 09:17:25;;;;;;;106.43;58.90;;;;;;;;;;771219;180;921156;-69
2024/01/17 09:19:51;;;;;;;142.05;66.28;;;;;;;;;;772631;179;927988;-69
2024/01/17 09:22:16;;;;;;;92.80;42.60;;;;;;;;;;772710;179;934941;-69
2024/01/17 09:24:42;;;;;;;46.33;25.13;;;;;;;;;;778467;179;916076;-70
2024/01/17 09:27:08;;;;;;;53.57;27.90;;;;;;;;;;776737;180;919627;-69
2024/01/17 09:29:35;;;;;;;41.70;23.83;;;;;;;;;;779481;180;918399;-70
2024/01/17 09:32:00;;;;;;;46.20;26.07;;;;;;;;;;771692;178;917699;-71
2024/01/17 09:34:26;;;;;;;59.33;36.67;;;;;;;;;;761020;179;919427;-69
2024/01/17 09:36:52;;;;;;;74.03;39.57;;;;;;;;;;779970;180;919117;-70
2024/01/17 09:39:18;;;;;;;49.73;26.23;;;;;;;;;;763552;180;918357;-70
2024/01/17 09:41:43;;;;;;;44.23;25.93;;;;;;;;;;774039;179;919240;-69
2024/01/17 09:44:09;;;;;;;42.03;25.30;;;;;;;;;;780053;179;918865;-69
2024/01/17 09:46:35;;;;;;;43.38;27.83;;;;;;;;;;782938;178;904230;-70
2024/01/17 09:49:01;;;;;;;23.77;13.60;;;;;;;;;;769910;180;919208;-71
2024/01/17 09:51:27;;;;;;;38.03;24.90;;;;;;;;;;768170;180;937108;-70
2024/01/17 09:53:53;;;;;;;42.60;24.90;;;;;;;;;;778551;180;920606;-70
2024/01/17 09:56:18;;;;;;;32.30;17.70;;;;;;;;;;775820;178;938470;-71
2024/01/17 09:58:44;;;;;;;23.07;14.00;;;;;;;;;;771448;179;919425;-70
2024/01/17 10:01:10;;;;;;;22.57;14.73;;;;;;;;;;778733;179;917630;-70
2024/01/17 10:03:37;;;;;;;18.33;11.23;;;;;;;;;;776381;180;919440;-70
2024/01/17 10:06:03;;;;;;;20.10;10.60;;;;;;;;;;766217;180;928546;-71
2024/01/17 10:08:28;;;;;;;11.40;6.10;;;;;;;;;;774987;180;918877;-70
2024/01/17 10:10:54;;;;;;;11.90;6.83;;;;;;;;;;771383;180;920257;-71
2024/01/17 10:13:20;;;;;;;15.07;7.18;;;;;;;;;;775220;180;917156;-70
2024/01/17 10:15:46;;;;;;;10.83;6.30;;;;;;;;;;771545;180;919898;-70
2024/01/17 10:18:12;;;;;;;10.53;6.73;;;;;;;;;;772668;179;918138;-71
2024/01/17 10:20:38;;;;;;;11.67;7.20;;;;;;;;;;777460;179;920106;-71
2024/01/17 10:23:03;;;;;;;11.57;7.50;;;;;;;;;;774758;179;919448;-71
2024/01/17 10:25:38;;;;;;;13.87;8.00;;;;;;;;;;782437;179;916270;-70
2024/01/17 10:28:04;;;;;;;13.40;6.50;;;;;;;;;;770034;179;922894;-71
2024/01/17 10:30:30;;;;;;;14.60;7.27;;;;;;;;;;758744;181;924865;-71
2024/01/17 10:32:55;;;;;;;15.23;7.03;;;;;;;;;;768336;180;917939;-71
2024/01/17 10:35:23;;;;;;;11.93;7.90;;;;;;;;;;773421;180;925098;-70
2024/01/17 10:37:47;;;;;;;11.03;7.60;;;;;;;;;;774929;180;921275;-71
2024/01/17 10:40:13;;;;;;;13.50;8.10;;;;;;;;;;775453;180;925919;-72
2024/01/17 10:42:40;;;;;;;12.03;8.20;;;;;;;;;;778411;180;946670;-72
2024/01/17 10:45:05;;;;;;;17.77;8.33;;;;;;;;;;774441;179;914086;-72
2024/01/17 10:47:31;;;;;;;12.87;8.70;;;;;;;;;;769113;180;912834;-71
2024/01/17 10:49:57;;;;;;;15.13;9.13;;;;;;;;;;782332;179;910605;-71
2024/01/17 10:52:23;;;;;;;11.93;7.63;;;;;;;;;;780689;180;919412;-72
2024/01/17 10:54:49;;;;;;;15.33;7.87;;;;;;;;;;770490;180;911985;-71
2024/01/17 10:57:15;;;;;;;15.17;8.20;;;;;;;;;;775306;179;920751;-71
2024/01/17 10:59:42;;;;;;;12.33;8.00;;;;;;;;;;776315;179;918946;-71
2024/01/17 11:02:08;;;;;;;15.87;8.93;;;;;;;;;;771308;180;920946;-71
2024/01/17 11:04:33;;;;;;;20.47;11.07;;;;;;;;;;769750;180;917725;-70
2024/01/17 11:06:59;;;;;;;17.60;10.23;;;;;;;;;;775597;180;919524;-72
2024/01/17 11:09:26;;;;;;;14.77;9.20;;;;;;;;;;774988;178;919767;-71
2024/01/17 11:11:51;;;;;;;19.33;9.73;;;;;;;;;;775485;179;918275;-71
2024/01/17 11:14:17;;;;;;;13.10;8.73;;;;;;;;;;780564;179;920013;-71
2024/01/17 11:16:46;;;;;;;14.07;9.50;;;;;;;;;;774520;180;917654;-72
2024/01/17 11:19:09;;;;;;;13.27;8.13;;;;;;;;;;775670;179;918633;-71
2024/01/17 11:21:35;;;;;;;15.80;9.02;;;;;;;;;;780098;179;920171;-71
2024/01/17 11:24:01;;;;;;;13.40;9.03;;;;;;;;;;777551;179;918431;-72
2024/01/17 11:26:28;;;;;;;19.33;10.00;;;;;;;;;;770411;180;919233;-71
2024/01/17 11:28:53;;;;;;;15.00;8.30;;;;;;;;;;775927;180;919169;-71
2024/01/17 11:31:24;;;;;;;13.67;8.83;;;;;;;;;;776431;180;1020390;-72
2024/01/17 11:33:50;;;;;;;13.30;8.23;;;;;;;;;;776186;179;919173;-72
2024/01/17 11:36:21;;;;;;;15.50;9.47;;;;;;;;;;774572;180;918918;-72
2024/01/17 11:38:47;;;;;;;17.55;8.60;;;;;;;;;;774839;179;918588;-71
2024/01/17 11:41:13;;;;;;;16.40;9.83;;;;;;;;;;779453;179;818351;-72
2024/01/17 11:43:41;;;;;;;16.73;8.20;;;;;;;;;;773238;180;918654;-72
2024/01/17 11:46:05;;;;;;;17.80;9.83;;;;;;;;;;774103;179;919073;-73
2024/01/17 11:48:31;;;;;;;16.93;10.10;;;;;;;;;;767159;179;917231;-71
2024/01/17 11:51:00;;;;;;;22.63;9.13;;;;;;;;;;764286;180;923531;-72
2024/01/17 11:53:26;;;;;;;18.13;9.90;;;;;;;;;;771759;179;915813;-71
2024/01/17 11:55:52;;;;;;;27.40;11.40;;;;;;;;;;772185;179;915482;-71
2024/01/17 11:58:18;;;;;;;16.50;9.67;;;;;;;;;;776360;180;915799;-71
2024/01/17 12:00:44;;;;;;;16.00;10.13;;;;;;;;;;772210;180;915040;-72
2024/01/17 12:03:10;;;;;;;15.57;9.53;;;;;;;;;;770826;179;918943;-71
2024/01/17 12:05:36;;;;;;;14.87;9.33;;;;;;;;;;777424;180;912635;-71
2024/01/17 12:08:02;;;;;;;18.33;9.30;;;;;;;;;;773961;180;920049;-71
2024/01/17 12:10:27;;;;;;;26.50;10.60;;;;;;;;;;776855;180;845161;-71
2024/01/17 12:12:53;;;;;;;16.10;8.80;;;;;;;;;;779631;179;918110;-71
2024/01/17 12:15:19;;;;;;;13.37;8.87;;;;;;;;;;774776;180;918881;-72
2024/01/17 12:17:45;;;;;;;17.40;9.00;;;;;;;;;;769404;180;919311;-71
2024/01/17 12:20:11;;;;;;;14.97;10.20;;;;;;;;;;776000;179;1020268;-71
2024/01/17 12:22:37;;;;;;;19.33;10.03;;;;;;;;;;779961;178;979562;-72
2024/01/17 12:25:03;;;;;;;17.17;10.67;;;;;;;;;;775554;179;1020329;-71
2024/01/17 12:27:30;;;;;;;17.57;11.47;;;;;;;;;;771729;179;1021347;-70
2024/01/17 12:29:57;;;;;;;14.67;9.80;;;;;;;;;;777191;179;899586;-71
2024/01/17 12:32:22;;;;;;;13.23;8.50;;;;;;;;;;777049;180;919015;-71
2024/01/17 12:34:48;;;;;;;18.43;10.67;;;;;;;;;;772504;179;941241;-71
2024/01/17 12:37:14;;;;;;;18.10;10.93;;;;;;;;;;784404;179;976148;-72
2024/01/17 12:39:40;;;;;;;20.20;10.23;;;;;;;;;;775807;180;939257;-71
2024/01/17 12:42:06;;;;;;;19.70;10.57;;;;;;;;;;771735;179;918918;-71
2024/01/17 12:44:31;;;;;;;15.83;9.93;;;;;;;;;;779398;179;918983;-72
2024/01/17 12:46:57;;;;;;;21.53;12.10;;;;;;;;;;775113;179;1020393;-73
2024/01/17 12:49:23;;;;;;;17.83;9.53;;;;;;;;;;770320;180;919182;-71
2024/01/17 12:51:49;;;;;;;20.00;10.60;;;;;;;;;;773859;180;916443;-71
2024/01/17 12:54:17;;;;;;;17.13;10.23;;;;;;;;;;771084;180;919330;-71
2024/01/17 12:56:42;;;;;;;13.80;8.90;;;;;;;;;;763785;180;922083;-71
2024/01/17 12:59:07;;;;;;;15.60;9.32;;;;;;;;;;773984;179;920484;-71
2024/01/17 13:01:33;;;;;;;13.70;9.30;;;;;;;;;;776080;180;925220;-72
2024/01/17 13:04:07;;;;;;;18.97;10.60;;;;;;;;;;773584;179;1017902;-72
2024/01/17 13:06:48;;;;;;;12.80;8.73;;;;;;;;;;775166;180;919697;-71
2024/01/17 13:09:17;;;;;;;17.47;9.90;;;;;;;;;;774230;179;919985;-70
2024/01/17 13:11:46;;;;;;;19.35;9.77;;;;;;;;;;774439;180;917759;-71
2024/01/17 13:14:12;;;;;;;17.47;9.93;;;;;;;;;;776693;180;1019940;-71
2024/01/17 13:16:38;;;;;;;18.83;8.57;;;;;;;;;;771827;179;923926;-71
2024/01/17 13:19:04;;;;;;;18.40;10.57;;;;;;;;;;773197;179;917597;-71
2024/01/17 13:21:29;;;;;;;23.80;12.10;;;;;;;;;;776489;180;917823;-71
2024/01/17 13:23:55;;;;;;;15.60;9.37;;;;;;;;;;768594;180;919509;-71
2024/01/17 13:26:21;;;;;;;21.93;12.03;;;;;;;;;;768575;180;922302;-72
2024/01/17 13:28:47;;;;;;;18.83;10.67;;;;;;;;;;775156;180;919318;-71
2024/01/17 13:31:14;;;;;;;19.07;10.80;;;;;;;;;;782032;178;915487;-71
2024/01/17 13:33:39;;;;;;;17.43;10.33;;;;;;;;;;777452;178;918790;-71
2024/01/17 13:36:05;;;;;;;19.53;10.23;;;;;;;;;;772197;179;919013;-71
2024/01/17 13:38:33;;;;;;;24.63;12.07;;;;;;;;;;772416;176;919521;-72
2024/01/17 13:40:56;;;;;;;13.57;9.03;;;;;;;;;;774300;177;919359;-71
2024/01/17 13:43:22;;;;;;;16.50;8.40;;;;;;;;;;774124;180;924484;-71
2024/01/17 13:45:48;;;;;;;9.33;7.80;;;;;;;;;;776184;180;922758;-72
2024/01/17 13:48:14;;;;;;;17.90;10.10;;;;;;;;;;766851;179;937721;-72
2024/01/17 13:50:40;;;;;;;14.07;8.83;;;;;;;;;;770155;180;1020874;-71
2024/01/17 13:53:08;;;;;;;13.30;9.00;;;;;;;;;;782082;179;919449;-71
2024/01/17 13:55:33;;;;;;;15.77;9.03;;;;;;;;;;779220;178;891251;-72
2024/01/17 13:57:58;;;;;;;12.50;5.73;;;;;;;;;;775676;179;932949;-71
2024/01/17 14:00:24;;;;;;;10.43;6.37;;;;;;;;;;773111;180;932941;-71
2024/01/17 14:02:52;;;;;;;20.63;6.20;;;;;;;;;;774670;179;913293;-71
2024/01/17 14:05:17;;;;;;;12.90;7.70;;;;;;;;;;773723;180;935552;-72